createdAt,value
2022-08-02T00:00:16.026Z,18.80
2022-08-02T00:02:44.202Z,18.70
2022-08-02T00:05:11.808Z,18.80
2022-08-02T00:07:41.200Z,18.70
2022-08-02T00:10:09.931Z,18.60
2022-08-02T00:12:36.870Z,18.60
2022-08-02T00:15:05.061Z,18.60
2022-08-02T00:17:31.723Z,18.60
2022-08-02T00:19:58.334Z,18.50
2022-08-02T00:22:25.009Z,18.50
2022-08-02T00:24:51.573Z,18.60
2022-08-02T00:27:18.216Z,18.50
2022-08-02T00:29:52.274Z,18.50
2022-08-02T00:32:20.219Z,18.50
2022-08-02T00:34:47.104Z,18.50
2022-08-02T00:37:13.823Z,18.50
2022-08-02T00:39:42.210Z,18.50
2022-08-02T00:42:09.961Z,18.40
2022-08-02T00:44:36.851Z,18.40
2022-08-02T00:47:03.545Z,18.40
2022-08-02T00:49:30.455Z,18.40
2022-08-02T00:51:57.097Z,18.30
2022-08-02T00:54:23.882Z,18.30
2022-08-02T00:56:51.227Z,18.30
2022-08-02T00:59:18.539Z,18.20
2022-08-02T01:01:56.966Z,18.20
2022-08-02T01:04:29.761Z,18.20
2022-08-02T01:06:57.400Z,18.20
2022-08-02T01:09:24.050Z,18.20
2022-08-02T01:11:50.653Z,18.20
2022-08-02T01:14:19.054Z,18.20
2022-08-02T01:16:58.745Z,18.20
2022-08-02T01:19:31.063Z,18.20
2022-08-02T01:22:16.816Z,18.20
2022-08-02T01:25:04.224Z,18.20
2022-08-02T01:27:46.631Z,18.20
2022-08-02T01:30:14.806Z,18.20
2022-08-02T01:32:46.247Z,18.20
2022-08-02T01:35:24.772Z,18.20
2022-08-02T01:37:58.670Z,18.10
2022-08-02T01:40:32.367Z,18.10
2022-08-02T01:43:00.493Z,18.10
2022-08-02T01:45:32.703Z,18.10
2022-08-02T01:48:00.762Z,18.10
2022-08-02T01:50:33.414Z,18.00
2022-08-02T01:53:05.495Z,18.00
2022-08-02T01:55:57.573Z,18.10
2022-08-02T01:58:29.767Z,18.00
2022-08-02T02:00:58.192Z,18.10
2022-08-02T02:03:27.204Z,18.10
2022-08-02T02:05:57.328Z,18.00
2022-08-02T02:08:28.892Z,18.00
2022-08-02T02:10:57.209Z,18.00
2022-08-02T02:13:33.651Z,18.00
2022-08-02T02:16:04.690Z,17.90
2022-08-02T02:18:38.807Z,17.90
2022-08-02T02:21:05.492Z,17.90
2022-08-02T02:23:32.214Z,17.90
2022-08-02T02:26:04.238Z,18.00
2022-08-02T02:28:32.813Z,17.90
2022-08-02T02:31:07.551Z,17.90
2022-08-02T02:33:38.885Z,17.90
2022-08-02T02:36:07.774Z,17.80
2022-08-02T02:38:36.175Z,17.80
2022-08-02T02:41:04.999Z,17.80
2022-08-02T02:43:34.448Z,17.70
2022-08-02T02:46:03.529Z,17.70
2022-08-02T02:48:30.678Z,17.60
2022-08-02T02:50:58.691Z,17.60
2022-08-02T02:53:26.119Z,17.40
2022-08-02T02:56:02.361Z,17.40
2022-08-02T02:58:30.409Z,17.40
2022-08-02T03:01:16.389Z,17.30
2022-08-02T03:03:44.988Z,17.30
2022-08-02T03:06:14.795Z,17.20
2022-08-02T03:08:42.272Z,17.20
2022-08-02T03:11:10.404Z,17.20
2022-08-02T03:13:38.923Z,17.20
2022-08-02T03:16:06.531Z,17.20
2022-08-02T03:18:34.750Z,17.20
2022-08-02T03:21:02.962Z,17.30
2022-08-02T03:23:29.903Z,17.20
2022-08-02T03:25:56.608Z,17.10
2022-08-02T03:28:23.650Z,17.20
2022-08-02T03:30:50.735Z,17.10
2022-08-02T03:33:18.606Z,17.00
2022-08-02T03:35:48.047Z,16.90
2022-08-02T03:38:17.653Z,16.90
2022-08-02T03:40:45.167Z,16.80
2022-08-02T03:43:12.722Z,16.80
2022-08-02T03:45:42.890Z,16.80
2022-08-02T03:48:33.722Z,16.80
2022-08-02T03:50:59.293Z,16.80
2022-08-02T03:53:27.006Z,16.80
2022-08-02T03:55:55.844Z,16.80
2022-08-02T03:58:24.163Z,16.70
2022-08-02T04:00:53.486Z,16.80
2022-08-02T04:03:20.284Z,16.80
2022-08-02T04:06:00.758Z,16.90
2022-08-02T04:08:37.228Z,16.90
2022-08-02T04:11:23.781Z,17.00
2022-08-02T04:13:50.493Z,17.00
2022-08-02T04:16:29.022Z,17.00
2022-08-02T04:19:02.379Z,17.00
2022-08-02T04:21:41.401Z,17.00
2022-08-02T04:24:25.111Z,17.00
2022-08-02T04:26:58.113Z,17.10
2022-08-02T04:29:33.974Z,17.10
2022-08-02T04:32:01.349Z,17.20
2022-08-02T04:34:28.790Z,17.20
2022-08-02T04:36:55.427Z,17.20
2022-08-02T04:39:22.002Z,17.30
2022-08-02T04:41:48.588Z,17.30
2022-08-02T04:44:15.363Z,17.30
2022-08-02T04:46:43.608Z,17.40
2022-08-02T04:49:10.450Z,17.40
2022-08-02T04:51:39.806Z,17.50
2022-08-02T04:54:09.942Z,17.50
2022-08-02T04:56:37.896Z,17.50
2022-08-02T04:59:05.125Z,17.60
2022-08-02T05:01:32.220Z,17.70
2022-08-02T05:03:59.234Z,17.90
2022-08-02T05:06:25.791Z,17.90
2022-08-02T05:08:53.404Z,18.20
2022-08-02T05:11:21.864Z,18.20
2022-08-02T05:13:58.935Z,18.40
2022-08-02T05:16:31.525Z,18.50
2022-08-02T05:18:59.957Z,18.70
2022-08-02T05:21:26.657Z,18.80
2022-08-02T05:23:53.263Z,18.80
2022-08-02T05:26:19.927Z,18.90
2022-08-02T05:28:46.519Z,19.10
2022-08-02T05:31:13.604Z,19.20
2022-08-02T05:33:40.550Z,19.30
2022-08-02T05:36:09.258Z,19.30
2022-08-02T05:38:37.241Z,19.20
2022-08-02T05:41:05.211Z,19.20
2022-08-02T05:43:32.107Z,19.30
2022-08-02T05:45:58.868Z,19.40
2022-08-02T05:48:31.107Z,19.40
2022-08-02T05:51:05.227Z,19.50
2022-08-02T05:54:10.315Z,19.60
2022-08-02T05:57:06.945Z,19.60
2022-08-02T06:00:00.988Z,19.60
2022-08-02T06:02:35.756Z,19.60
2022-08-02T06:05:10.319Z,19.70
2022-08-02T06:07:38.163Z,19.80
2022-08-02T06:10:06.525Z,19.80
2022-08-02T06:12:41.076Z,19.90
2022-08-02T06:15:08.202Z,19.90
2022-08-02T06:17:35.506Z,20.00
2022-08-02T06:20:11.826Z,20.20
2022-08-02T06:22:42.815Z,20.30
2022-08-02T06:25:11.500Z,20.50
2022-08-02T06:28:00.026Z,20.70
2022-08-02T06:30:27.712Z,20.90
2022-08-02T06:32:54.667Z,21.00
2022-08-02T06:35:21.619Z,21.10
2022-08-02T06:37:58.929Z,21.00
2022-08-02T06:40:32.193Z,20.80
2022-08-02T06:43:23.276Z,20.80
2022-08-02T06:45:49.946Z,20.90
2022-08-02T08:14:57.705Z,23.30
2022-08-02T08:17:24.543Z,23.40
2022-08-02T08:19:52.848Z,23.50
2022-08-02T08:22:20.730Z,23.50
2022-08-02T08:24:48.457Z,23.20
2022-08-02T08:27:16.062Z,23.30
2022-08-02T08:29:43.649Z,23.50
2022-08-02T08:34:48.246Z,23.80
2022-08-02T08:37:18.343Z,24.20
2022-08-02T08:39:56.550Z,24.10
2022-08-02T08:42:24.371Z,24.10
2022-08-02T08:44:51.413Z,24.30
2022-08-02T08:47:19.126Z,24.00
2022-08-02T10:38:03.317Z,27.70
2022-08-02T10:40:50.762Z,27.70
2022-08-02T10:43:32.445Z,27.90
2022-08-02T10:46:21.549Z,28.10
2022-08-02T10:52:02.523Z,27.00
2022-08-02T10:54:31.980Z,27.30
2022-08-02T10:57:01.399Z,27.60
2022-08-02T10:59:32.182Z,27.20
2022-08-02T11:02:04.138Z,27.40
2022-08-02T11:04:36.849Z,27.60
2022-08-02T11:07:11.733Z,27.60
2022-08-02T11:09:38.449Z,27.10
2022-08-02T11:12:18.094Z,26.80
2022-08-02T11:15:00.287Z,26.70
2022-08-02T11:17:38.104Z,26.90
2022-08-02T11:20:08.862Z,26.70
2022-08-02T11:22:35.722Z,26.40
2022-08-02T11:25:48.477Z,26.10
2022-08-02T11:28:18.372Z,26.40
2022-08-02T11:30:57.209Z,26.60
2022-08-02T11:33:31.095Z,26.40
2022-08-02T11:36:02.653Z,26.40
2022-08-02T11:38:29.433Z,26.50
2022-08-02T11:40:57.248Z,26.70
2022-08-02T11:43:27.001Z,27.20
2022-08-02T11:48:33.306Z,27.90
2022-08-02T11:51:14.139Z,28.60
2022-08-02T11:53:54.583Z,28.70
2022-08-02T11:56:35.058Z,28.50
2022-08-02T11:59:05.676Z,28.60
2022-08-02T12:01:44.794Z,28.60
2022-08-02T12:04:16.986Z,28.70
2022-08-02T12:06:43.905Z,28.70
2022-08-02T12:09:18.680Z,28.50
2022-08-02T12:11:49.967Z,28.90
2022-08-02T12:14:17.115Z,28.60
2022-08-02T12:17:02.222Z,28.70
2022-08-02T12:19:29.411Z,28.80
2022-08-02T12:22:11.191Z,28.20
2022-08-02T12:24:39.660Z,28.00
2022-08-02T12:27:07.429Z,28.80
2022-08-02T12:29:57.816Z,29.40
2022-08-02T12:32:25.016Z,29.80
2022-08-02T12:45:22.702Z,29.20
2022-08-02T12:47:52.287Z,29.10
2022-08-02T12:50:22.075Z,28.80
2022-08-02T12:52:50.327Z,28.40
2022-08-02T12:55:20.965Z,28.70
2022-08-02T12:58:01.886Z,28.70
2022-08-02T13:00:30.127Z,28.60
2022-08-02T13:02:58.563Z,28.30
2022-08-02T13:05:26.497Z,28.50
2022-08-02T13:07:53.289Z,29.10
2022-08-02T13:10:20.961Z,29.50
2022-08-02T13:12:47.638Z,29.40
2022-08-02T13:15:49.030Z,29.40
2022-08-02T13:18:01.484Z,29.30
2022-08-02T13:20:29.100Z,29.80
2022-08-02T13:22:56.532Z,30.40
2022-08-02T13:25:30.867Z,30.90
2022-08-02T13:27:57.435Z,31.50
2022-08-02T13:30:24.026Z,31.90
2022-08-02T13:32:50.611Z,32.10
2022-08-02T13:35:18.045Z,32.30
2022-08-02T13:37:45.405Z,30.80
2022-08-02T13:40:21.787Z,30.70
2022-08-02T13:42:49.157Z,30.60
2022-08-02T13:45:16.249Z,30.60
2022-08-02T13:48:04.634Z,30.90
2022-08-02T13:50:31.458Z,31.30
2022-08-02T13:52:58.043Z,31.30
2022-08-02T13:55:24.939Z,30.40
2022-08-02T13:57:53.731Z,30.20
2022-08-02T14:00:35.491Z,30.40
2022-08-02T14:03:04.114Z,29.80
2022-08-02T14:05:39.523Z,29.60
2022-08-02T14:08:20.614Z,30.20
2022-08-02T14:10:47.954Z,29.80
2022-08-02T14:13:14.670Z,30.50
2022-08-02T14:15:41.502Z,31.00
2022-08-02T14:18:08.264Z,31.40
2022-08-02T14:20:34.930Z,31.40
2022-08-02T14:23:01.514Z,30.80
2022-08-02T14:25:28.101Z,30.50
2022-08-02T14:27:54.701Z,30.20
2022-08-02T14:30:23.175Z,30.40
2022-08-02T14:32:50.899Z,30.90
2022-08-02T14:35:17.595Z,31.20
2022-08-02T14:37:44.190Z,31.40
2022-08-02T14:40:31.264Z,31.00
2022-08-02T14:42:58.360Z,30.40
2022-08-02T14:45:26.159Z,31.10
2022-08-02T14:48:03.659Z,30.90
2022-08-02T14:50:30.711Z,30.40
2022-08-02T14:52:57.290Z,29.90
2022-08-02T14:55:23.904Z,30.60
2022-08-02T14:57:50.965Z,30.60
2022-08-02T15:00:17.920Z,30.80
2022-08-02T15:02:44.712Z,31.30
2022-08-02T15:05:11.389Z,31.50
2022-08-02T15:07:42.530Z,31.90
2022-08-02T15:10:10.873Z,32.10
2022-08-02T15:12:37.445Z,31.80
2022-08-02T15:15:04.415Z,30.90
2022-08-02T15:17:31.838Z,30.40
2022-08-02T15:20:02.012Z,30.90
2022-08-02T15:22:37.955Z,30.90
2022-08-02T15:25:04.981Z,31.20
2022-08-02T15:27:41.434Z,31.30
2022-08-02T15:30:08.950Z,31.70
2022-08-02T15:32:35.527Z,31.50
2022-08-02T15:35:02.201Z,31.20
2022-08-02T15:37:30.950Z,31.20
2022-08-02T15:39:58.882Z,31.50
2022-08-02T15:42:30.545Z,31.20
2022-08-02T15:44:57.772Z,31.10
2022-08-02T15:47:24.359Z,31.00
2022-08-02T15:49:50.968Z,30.90
2022-08-02T15:52:17.603Z,31.20
2022-08-02T15:54:44.224Z,31.40
2022-08-02T15:57:10.966Z,31.90
2022-08-02T16:29:26.699Z,37.30
2022-08-02T16:32:00.031Z,37.40
2022-08-02T16:34:26.617Z,37.80
2022-08-02T16:36:53.255Z,37.30
2022-08-02T16:39:19.828Z,36.00
2022-08-02T16:41:52.005Z,35.00
2022-08-02T16:44:29.288Z,35.20
2022-08-02T16:47:11.352Z,34.60
2022-08-02T16:50:05.557Z,32.20
2022-08-02T16:52:26.680Z,31.40
2022-08-02T16:54:53.263Z,31.10
2022-08-02T16:57:20.284Z,30.70
2022-08-02T16:59:57.335Z,29.80
2022-08-02T17:02:25.649Z,29.60
2022-08-02T17:04:52.372Z,29.60
2022-08-02T17:08:08.097Z,29.40
2022-08-02T17:10:09.373Z,29.70
2022-08-02T17:12:36.926Z,29.70
2022-08-02T17:16:07.899Z,29.60
2022-08-02T17:17:51.687Z,29.30
2022-08-02T17:20:18.519Z,29.20
2022-08-02T17:22:45.777Z,29.10
2022-08-02T17:25:15.886Z,28.90
2022-08-02T17:27:44.166Z,28.70
2022-08-02T17:30:12.873Z,28.60
2022-08-02T17:32:40.071Z,28.60
2022-08-02T17:35:12.521Z,28.50
2022-08-02T17:37:42.204Z,28.50
2022-08-02T17:40:09.643Z,28.40
2022-08-02T17:42:36.621Z,28.30
2022-08-02T17:45:16.572Z,28.20
2022-08-02T17:47:43.689Z,28.10
2022-08-02T17:52:58.368Z,27.70
2022-08-02T17:55:25.340Z,27.60
2022-08-02T17:57:57.439Z,27.40
2022-08-02T18:02:55.366Z,27.20
2022-08-02T18:05:39.219Z,27.10
2022-08-02T18:08:08.810Z,27.00
2022-08-02T18:10:35.775Z,26.80
2022-08-02T18:13:03.647Z,26.70
2022-08-02T18:18:19.305Z,26.50
2022-08-02T18:20:57.226Z,26.40
2022-08-02T18:23:24.289Z,26.30
2022-08-02T18:25:55.154Z,26.20
2022-08-02T18:30:53.821Z,25.90
2022-08-02T18:33:58.786Z,25.70
2022-08-02T18:36:08.059Z,25.60
2022-08-02T18:38:34.699Z,25.50
2022-08-02T18:41:06.915Z,25.30
2022-08-02T18:43:43.734Z,25.10
2022-08-02T18:46:15.556Z,25.00
2022-08-02T18:48:46.888Z,24.90
2022-08-02T18:51:15.963Z,24.70
2022-08-02T18:53:43.222Z,24.60
2022-08-02T18:59:03.184Z,24.30
2022-08-02T19:01:32.687Z,24.20
2022-08-02T19:04:02.850Z,24.00
2022-08-02T19:06:30.039Z,23.90
2022-08-02T19:09:05.684Z,23.80
2022-08-02T19:11:38.426Z,23.70
2022-08-02T19:14:07.930Z,23.60
2022-08-02T19:16:36.836Z,23.60
2022-08-02T19:19:05.530Z,23.40
2022-08-02T19:22:26.582Z,23.40
2022-08-02T19:24:19.123Z,23.30
2022-08-02T19:26:51.647Z,23.20
2022-08-02T19:29:42.166Z,23.10
2022-08-02T19:32:40.550Z,23.00
2022-08-02T19:34:55.338Z,23.00
2022-08-02T19:37:21.984Z,22.90
2022-08-02T19:39:48.698Z,22.80
2022-08-02T19:42:16.890Z,22.70
2022-08-02T19:44:45.919Z,22.70
2022-08-02T19:47:19.013Z,22.60
2022-08-02T19:49:48.778Z,22.50
2022-08-02T19:52:21.110Z,22.40
2022-08-02T19:54:56.097Z,22.40
2022-08-02T19:57:25.237Z,22.30
2022-08-02T19:59:52.584Z,22.30
2022-08-02T20:02:21.104Z,22.30
2022-08-02T20:04:49.943Z,22.20
2022-08-02T20:07:48.231Z,22.20
2022-08-02T20:10:10.882Z,22.20
2022-08-02T20:12:38.849Z,22.20
2022-08-02T20:15:14.414Z,22.20
2022-08-02T20:17:47.304Z,22.10
2022-08-02T20:20:14.740Z,22.10
2022-08-02T20:22:59.925Z,22.00
2022-08-02T20:25:28.861Z,21.90
2022-08-02T20:27:55.771Z,21.80
2022-08-02T20:30:25.522Z,21.70
2022-08-02T20:32:58.897Z,21.70
2022-08-02T20:35:41.726Z,21.60
2022-08-02T20:38:09.762Z,21.50
2022-08-02T20:40:38.733Z,21.50
2022-08-02T20:43:05.348Z,21.50
2022-08-02T20:45:34.714Z,21.40
2022-08-02T20:48:01.338Z,21.40
2022-08-02T20:50:46.714Z,21.30
2022-08-02T20:53:24.071Z,21.20
2022-08-02T20:55:54.788Z,21.20
2022-08-02T20:58:26.928Z,21.10
2022-08-02T21:00:58.456Z,21.10
2022-08-02T21:03:25.332Z,21.10
2022-08-02T21:06:07.737Z,21.10
2022-08-02T21:08:34.786Z,21.20
2022-08-02T21:11:01.441Z,21.20
2022-08-02T21:13:47.290Z,21.20
2022-08-02T21:16:23.051Z,21.20
2022-08-02T21:18:55.608Z,21.10
2022-08-02T21:21:26.541Z,21.10
2022-08-02T21:23:54.634Z,21.00
2022-08-02T21:26:27.796Z,21.00
2022-08-02T21:28:55.436Z,20.90
2022-08-02T21:31:22.198Z,20.90
2022-08-02T21:33:58.651Z,20.90
2022-08-02T21:36:31.085Z,20.80
2022-08-02T21:39:04.458Z,20.80
2022-08-02T21:41:39.642Z,20.80
2022-08-02T21:44:17.887Z,20.70
2022-08-02T21:46:49.291Z,20.60
2022-08-02T21:49:20.889Z,20.50
2022-08-02T21:51:54.557Z,20.40
2022-08-02T21:54:21.873Z,20.30
2022-08-02T21:56:52.011Z,20.30
2022-08-02T21:59:25.910Z,20.30
2022-08-02T22:01:56.479Z,20.30
2022-08-02T22:04:24.865Z,20.30
2022-08-02T22:06:52.663Z,20.20
2022-08-02T22:09:42.065Z,20.20
2022-08-02T22:12:12.673Z,20.10
2022-08-02T22:14:49.570Z,20.10
2022-08-02T22:17:20.284Z,20.00
2022-08-02T22:19:53.988Z,20.00
2022-08-02T22:22:28.439Z,20.00
2022-08-02T22:24:56.703Z,19.90
2022-08-02T22:27:24.051Z,19.90
2022-08-02T22:30:11.093Z,19.90
2022-08-02T22:32:56.549Z,19.90
2022-08-02T22:35:23.291Z,19.80
2022-08-02T22:38:14.954Z,19.80
2022-08-02T22:40:36.648Z,19.70
2022-08-02T22:43:03.238Z,19.70
2022-08-02T22:45:30.561Z,19.60
2022-08-02T22:48:03.613Z,19.60
2022-08-02T22:50:30.379Z,19.60
2022-08-02T22:52:57.337Z,19.60
2022-08-02T22:55:24.251Z,19.50
2022-08-02T22:57:58.714Z,19.50
2022-08-02T22:58:58.053Z,26.50
2022-08-02T22:59:00.020Z,24.40
2022-08-02T23:00:26.262Z,19.50
2022-08-02T23:02:52.913Z,19.40
2022-08-02T23:05:20.821Z,19.40
2022-08-02T23:07:47.553Z,19.30
2022-08-02T23:10:14.381Z,19.30
2022-08-02T23:12:41.056Z,19.20
2022-08-02T23:15:08.385Z,19.20
2022-08-02T23:17:53.482Z,19.20
2022-08-02T23:20:20.502Z,19.10
2022-08-02T23:22:47.106Z,19.10
2022-08-02T23:25:14.536Z,19.10
2022-08-02T23:27:50.209Z,19.10
2022-08-02T23:30:17.741Z,19.00
2022-08-02T23:32:44.392Z,18.90
2022-08-02T23:35:17.264Z,18.90
2022-08-02T23:38:00.375Z,18.80
2022-08-02T23:40:39.250Z,18.80
2022-08-02T23:43:13.445Z,18.70
2022-08-02T23:45:41.485Z,18.70
2022-08-02T23:48:08.086Z,18.80
2022-08-02T23:50:34.674Z,18.70
2022-08-02T23:53:01.239Z,18.70
2022-08-02T23:55:27.817Z,18.60
2022-08-02T23:57:54.416Z,18.60
